createdAt,value
2023-01-17T00:02:12.885Z,30.40
2023-01-17T00:04:59.730Z,35.92
2023-01-17T00:07:46.319Z,35.95
2023-01-17T00:10:15.109Z,33.63
2023-01-17T00:13:03.271Z,33.75
2023-01-17T00:15:31.584Z,31.10
2023-01-17T00:17:59.753Z,32.72
2023-01-17T00:20:49.003Z,31.62
2023-01-17T00:23:43.312Z,30.73
2023-01-17T00:26:16.800Z,36.00
2023-01-17T00:28:45.675Z,34.53
2023-01-17T00:31:15.078Z,36.70
2023-01-17T00:33:42.921Z,33.55
2023-01-17T00:36:11.531Z,37.17
2023-01-17T00:38:39.977Z,33.45
2023-01-17T00:41:12.495Z,32.45
2023-01-17T00:43:59.093Z,30.62
2023-01-17T00:46:45.704Z,33.75
2023-01-17T00:49:31.999Z,34.17
2023-01-17T00:52:18.497Z,32.85
2023-01-17T00:55:04.853Z,31.70
2023-01-17T00:57:50.772Z,32.60
2023-01-17T01:00:37.728Z,34.97
2023-01-17T01:03:28.515Z,34.53
2023-01-17T01:06:14.820Z,38.95
2023-01-17T01:09:01.148Z,38.83
2023-01-17T01:11:47.578Z,37.15
2023-01-17T01:14:34.142Z,32.70
2023-01-17T01:17:20.696Z,35.73
2023-01-17T01:20:10.067Z,32.70
2023-01-17T01:22:56.527Z,34.55
2023-01-17T01:25:42.483Z,31.37
2023-01-17T01:28:31.315Z,30.67
2023-01-17T01:31:23.963Z,28.50
2023-01-17T01:33:53.093Z,32.03
2023-01-17T01:36:20.777Z,36.80
2023-01-17T01:38:50.234Z,31.48
2023-01-17T01:41:18.224Z,33.05
2023-01-17T01:43:51.596Z,32.23
2023-01-17T01:46:41.129Z,29.33
2023-01-17T01:49:17.931Z,26.90
2023-01-17T01:51:49.280Z,22.62
2023-01-17T01:54:21.152Z,25.20
2023-01-17T01:56:49.977Z,22.07
2023-01-17T01:59:19.491Z,21.10
2023-01-17T02:01:48.612Z,21.33
2023-01-17T02:04:17.305Z,17.83
2023-01-17T02:06:50.337Z,18.35
2023-01-17T02:09:18.647Z,17.50
2023-01-17T02:11:47.376Z,16.85
2023-01-17T02:14:16.590Z,14.52
2023-01-17T02:16:44.531Z,14.38
2023-01-17T02:20:06.405Z,13.85
2023-01-17T02:22:58.280Z,15.17
2023-01-17T02:25:34.504Z,18.50
2023-01-17T02:28:23.163Z,16.45
2023-01-17T02:30:54.254Z,15.90
2023-01-17T02:33:32.449Z,15.93
2023-01-17T02:36:38.206Z,18.63
2023-01-17T02:39:17.536Z,16.50
2023-01-17T02:41:48.848Z,20.50
2023-01-17T02:44:19.219Z,19.73
2023-01-17T02:46:48.045Z,18.33
2023-01-17T02:49:17.854Z,19.73
2023-01-17T02:52:06.096Z,23.48
2023-01-17T02:54:41.515Z,20.65
2023-01-17T02:57:27.772Z,20.77
2023-01-17T03:00:23.765Z,23.02
2023-01-17T03:03:10.228Z,20.37
2023-01-17T03:05:51.800Z,20.70
2023-01-17T03:08:19.439Z,21.77
2023-01-17T03:10:47.357Z,21.10
2023-01-17T03:13:14.906Z,17.42
2023-01-17T03:15:42.707Z,19.33
2023-01-17T03:18:15.308Z,15.75
2023-01-17T03:20:43.143Z,16.50
2023-01-17T03:23:10.988Z,16.98
2023-01-17T03:25:38.587Z,16.37
2023-01-17T03:28:06.209Z,21.23
2023-01-17T03:30:34.092Z,18.73
2023-01-17T03:33:01.656Z,16.25
2023-01-17T03:35:29.226Z,19.50
2023-01-17T03:37:57.037Z,17.48
2023-01-17T03:40:24.660Z,17.03
2023-01-17T03:42:52.321Z,20.30
2023-01-17T03:45:20.133Z,17.62
2023-01-17T03:47:47.756Z,20.35
2023-01-17T03:50:15.518Z,15.23
2023-01-17T03:52:43.274Z,13.27
2023-01-17T03:55:10.860Z,12.45
2023-01-17T03:57:38.444Z,14.13
2023-01-17T04:00:07.120Z,13.93
2023-01-17T04:02:34.771Z,11.65
2023-01-17T04:05:02.592Z,14.57
2023-01-17T04:07:30.304Z,14.63
2023-01-17T04:09:57.852Z,12.40
2023-01-17T04:12:25.733Z,11.75
2023-01-17T04:14:53.220Z,10.40
2023-01-17T04:17:20.864Z,9.53
2023-01-17T04:19:48.780Z,12.60
2023-01-17T04:22:16.384Z,11.50
2023-01-17T04:24:43.930Z,12.07
2023-01-17T04:27:14.284Z,12.95
2023-01-17T04:29:42.014Z,11.30
2023-01-17T04:32:09.955Z,9.45
2023-01-17T04:34:37.790Z,13.25
2023-01-17T04:37:05.362Z,10.85
2023-01-17T04:39:33.119Z,13.50
2023-01-17T04:42:00.892Z,14.40
2023-01-17T04:44:28.378Z,10.10
2023-01-17T04:46:55.836Z,12.93
2023-01-17T04:49:23.809Z,16.17
2023-01-17T04:51:51.377Z,11.90
2023-01-17T04:54:18.876Z,10.60
2023-01-17T04:56:46.637Z,13.13
2023-01-17T04:59:14.501Z,11.12
2023-01-17T05:01:42.769Z,10.50
2023-01-17T05:04:10.697Z,9.57
2023-01-17T05:06:38.203Z,12.93
2023-01-17T05:09:06.695Z,9.07
2023-01-17T05:11:35.243Z,8.93
2023-01-17T05:14:02.755Z,11.30
2023-01-17T05:16:30.313Z,8.93
2023-01-17T05:18:58.252Z,11.53
2023-01-17T05:21:25.838Z,9.90
2023-01-17T05:23:53.572Z,9.65
2023-01-17T05:26:21.405Z,9.23
2023-01-17T05:28:48.894Z,8.38
2023-01-17T05:31:16.465Z,9.60
2023-01-17T05:33:44.306Z,8.45
2023-01-17T05:36:11.906Z,8.70
2023-01-17T05:38:39.783Z,9.85
2023-01-17T05:41:08.206Z,8.13
2023-01-17T05:43:35.921Z,6.60
2023-01-17T05:46:03.554Z,7.75
2023-01-17T05:48:31.364Z,11.35
2023-01-17T05:50:58.931Z,8.30
2023-01-17T05:53:26.495Z,8.13
2023-01-17T05:55:54.253Z,7.90
2023-01-17T05:58:22.357Z,7.57
2023-01-17T06:00:50.000Z,7.62
2023-01-17T06:03:18.167Z,8.48
2023-01-17T06:05:46.253Z,8.65
2023-01-17T06:08:13.803Z,8.07
2023-01-17T06:10:41.695Z,8.65
2023-01-17T06:13:12.527Z,8.35
2023-01-17T06:15:40.183Z,8.52
2023-01-17T06:18:13.032Z,9.60
2023-01-17T06:20:41.236Z,8.10
2023-01-17T06:23:12.040Z,10.45
2023-01-17T06:25:44.954Z,8.70
2023-01-17T06:28:14.778Z,8.70
2023-01-17T06:30:43.849Z,8.52
2023-01-17T06:33:12.169Z,9.47
2023-01-17T06:35:44.274Z,10.55
2023-01-17T06:38:11.789Z,10.25
2023-01-17T06:40:39.394Z,10.68
2023-01-17T06:43:07.285Z,11.48
2023-01-17T06:45:36.122Z,11.83
2023-01-17T06:48:05.331Z,11.38
2023-01-17T06:50:34.287Z,11.15
2023-01-17T06:53:04.852Z,10.07
2023-01-17T06:55:36.159Z,8.60
2023-01-17T06:58:04.187Z,7.57
2023-01-17T07:00:35.180Z,6.22
2023-01-17T07:03:03.046Z,5.85
2023-01-17T07:05:31.066Z,5.47
2023-01-17T07:07:58.925Z,5.45
2023-01-17T07:10:26.590Z,4.97
2023-01-17T07:12:59.685Z,5.85
2023-01-17T07:15:27.282Z,6.43
2023-01-17T07:17:55.180Z,7.57
2023-01-17T07:20:22.743Z,5.15
2023-01-17T07:22:54.833Z,4.23
2023-01-17T07:25:22.664Z,6.40
2023-01-17T07:27:54.802Z,7.32
2023-01-17T07:30:22.660Z,3.53
2023-01-17T07:32:53.142Z,4.70
2023-01-17T07:35:21.631Z,4.17
2023-01-17T07:37:50.555Z,4.18
2023-01-17T07:40:20.049Z,5.05
2023-01-17T07:42:47.813Z,4.60
2023-01-17T07:45:18.529Z,4.50
2023-01-17T07:47:46.072Z,3.07
2023-01-17T07:50:13.819Z,3.67
2023-01-17T07:52:41.839Z,3.87
2023-01-17T07:55:09.740Z,3.60
2023-01-17T07:57:37.329Z,3.92
2023-01-17T08:00:05.911Z,3.30
2023-01-17T08:02:39.573Z,3.22
2023-01-17T08:05:07.639Z,11.25
2023-01-17T08:07:35.246Z,9.77
2023-01-17T08:10:02.890Z,11.98
2023-01-17T08:12:30.813Z,6.07
2023-01-17T08:14:58.312Z,3.65
2023-01-17T08:17:26.285Z,3.42
2023-01-17T08:19:54.076Z,3.12
2023-01-17T08:22:21.763Z,6.05
2023-01-17T08:24:49.266Z,4.47
2023-01-17T08:27:17.093Z,4.07
2023-01-17T08:29:48.313Z,3.40
2023-01-17T08:32:16.263Z,4.75
2023-01-17T08:34:44.137Z,3.47
2023-01-17T08:37:11.700Z,6.23
2023-01-17T08:39:39.424Z,4.82
2023-01-17T08:42:07.279Z,3.87
2023-01-17T08:44:34.943Z,3.37
2023-01-17T08:47:02.480Z,4.07
2023-01-17T08:49:30.384Z,3.87
2023-01-17T08:51:58.128Z,4.60
2023-01-17T08:54:25.716Z,4.05
2023-01-17T08:56:54.866Z,5.32
2023-01-17T08:59:22.630Z,3.55
2023-01-17T09:01:52.480Z,4.20
2023-01-17T09:04:20.484Z,3.80
2023-01-17T09:06:48.417Z,4.12
2023-01-17T09:09:17.249Z,4.45
2023-01-17T09:11:45.058Z,8.93
2023-01-17T09:14:13.455Z,9.47
2023-01-17T09:16:41.039Z,5.75
2023-01-17T09:19:09.266Z,8.50
2023-01-17T09:21:36.869Z,9.35
2023-01-17T09:24:04.521Z,9.68
2023-01-17T09:26:32.457Z,7.77
2023-01-17T09:28:59.974Z,8.65
2023-01-17T09:31:28.222Z,7.53
2023-01-17T09:33:57.641Z,5.03
2023-01-17T09:36:31.879Z,3.92
2023-01-17T09:39:01.258Z,8.03
2023-01-17T09:41:31.745Z,5.37
2023-01-17T09:43:59.326Z,6.05
2023-01-17T09:46:30.258Z,3.25
2023-01-17T09:49:09.176Z,8.07
2023-01-17T09:51:37.278Z,2.47
2023-01-17T09:54:05.557Z,2.62
2023-01-17T09:56:41.417Z,2.33
2023-01-17T10:00:02.343Z,4.03
2023-01-17T10:02:52.196Z,5.30
2023-01-17T10:05:26.736Z,3.57
2023-01-17T10:08:12.463Z,3.42
2023-01-17T10:10:41.922Z,3.05
2023-01-17T10:13:31.764Z,4.28
2023-01-17T10:16:09.877Z,3.60
2023-01-17T10:18:51.219Z,3.13
2023-01-17T10:21:38.207Z,2.92
2023-01-17T10:24:16.294Z,2.87
2023-01-17T10:26:46.877Z,4.80
2023-01-17T10:29:20.993Z,8.00
2023-01-17T10:31:56.785Z,5.27
2023-01-17T10:34:45.645Z,4.18
2023-01-17T10:37:24.729Z,4.22
2023-01-17T10:39:55.004Z,3.78
2023-01-17T10:42:31.804Z,4.15
2023-01-17T10:45:04.614Z,3.77
2023-01-17T10:47:36.744Z,3.60
2023-01-17T10:50:11.607Z,2.85
2023-01-17T10:52:43.432Z,2.75
2023-01-17T10:55:19.032Z,3.55
2023-01-17T10:57:48.664Z,3.87
2023-01-17T11:00:19.159Z,2.60
2023-01-17T11:02:50.575Z,2.95
2023-01-17T11:05:30.518Z,2.65
2023-01-17T11:07:59.244Z,2.55
2023-01-17T11:10:50.322Z,3.53
2023-01-17T11:13:28.483Z,4.90
2023-01-17T11:15:59.254Z,4.85
2023-01-17T11:18:29.577Z,3.85
2023-01-17T11:21:13.377Z,4.30
2023-01-17T11:23:45.692Z,7.23
2023-01-17T11:26:23.312Z,2.78
2023-01-17T11:28:52.294Z,2.95
2023-01-17T11:31:19.858Z,3.12
2023-01-17T11:33:53.946Z,3.97
2023-01-17T11:36:30.211Z,2.53
2023-01-17T11:38:59.320Z,2.53
2023-01-17T11:41:28.284Z,3.10
2023-01-17T11:43:57.826Z,2.47
2023-01-17T11:46:28.233Z,3.97
2023-01-17T11:49:01.170Z,2.87
2023-01-17T11:51:33.053Z,2.95
2023-01-17T11:54:39.658Z,2.28
2023-01-17T11:57:20.514Z,2.83
2023-01-17T11:59:48.818Z,2.97
2023-01-17T12:02:40.469Z,2.80
2023-01-17T12:05:15.505Z,4.80
2023-01-17T12:08:02.735Z,4.30
2023-01-17T12:10:39.100Z,3.95
2023-01-17T12:13:25.315Z,3.30
2023-01-17T12:16:31.933Z,3.07
2023-01-17T12:19:43.572Z,8.32
2023-01-17T12:22:24.012Z,16.42
2023-01-17T12:25:16.261Z,9.30
2023-01-17T12:28:22.693Z,5.12
2023-01-17T12:31:15.292Z,4.77
2023-01-17T12:33:57.673Z,8.43
2023-01-17T12:36:48.532Z,12.07
2023-01-17T12:39:19.773Z,12.77
2023-01-17T12:42:00.380Z,6.22
2023-01-17T12:44:46.422Z,6.00
2023-01-17T12:47:14.674Z,7.43
2023-01-17T12:49:46.865Z,5.07
2023-01-17T12:52:44.532Z,5.60
2023-01-17T12:55:17.723Z,6.12
2023-01-17T12:58:00.458Z,7.03
2023-01-17T13:00:30.150Z,14.75
2023-01-17T13:03:45.500Z,27.10
2023-01-17T13:06:22.564Z,16.50
2023-01-17T13:08:53.741Z,12.10
2023-01-17T13:11:30.155Z,8.47
2023-01-17T13:13:59.856Z,4.95
2023-01-17T13:16:37.612Z,3.53
2023-01-17T13:19:24.417Z,2.55
2023-01-17T13:21:52.604Z,2.42
2023-01-17T13:24:33.001Z,2.73
2023-01-17T13:27:16.905Z,4.28
2023-01-17T13:29:53.769Z,3.92
2023-01-17T13:32:42.994Z,6.85
2023-01-17T13:35:25.048Z,4.70
2023-01-17T13:38:04.525Z,4.73
2023-01-17T13:40:56.145Z,5.07
2023-01-17T13:43:36.989Z,4.80
2023-01-17T13:46:04.975Z,4.75
2023-01-17T13:48:37.411Z,2.72
2023-01-17T13:51:07.789Z,3.87
2023-01-17T13:53:35.560Z,3.40
2023-01-17T13:56:05.816Z,3.20
2023-01-17T13:59:03.789Z,5.50
2023-01-17T14:01:38.435Z,3.92
2023-01-17T14:04:11.236Z,5.23
2023-01-17T14:06:40.636Z,2.45
2023-01-17T14:09:08.590Z,3.37
2023-01-17T14:11:37.250Z,2.95
2023-01-17T14:14:42.005Z,4.00
2023-01-17T14:17:28.222Z,4.40
2023-01-17T14:20:25.115Z,3.87
2023-01-17T14:22:55.499Z,3.75
2023-01-17T14:25:25.583Z,3.22
2023-01-17T14:28:06.872Z,4.12
2023-01-17T14:30:36.632Z,5.63
2023-01-17T14:33:27.756Z,4.20
2023-01-17T14:36:01.570Z,3.30
2023-01-17T14:38:31.958Z,4.43
2023-01-17T14:41:03.756Z,5.37
2023-01-17T14:43:33.620Z,5.40
2023-01-17T14:46:15.535Z,5.70
2023-01-17T14:48:44.392Z,4.80
2023-01-17T14:51:14.643Z,7.55
2023-01-17T14:53:53.318Z,6.20
2023-01-17T14:56:21.553Z,6.13
2023-01-17T14:59:11.110Z,6.47
2023-01-17T15:01:39.175Z,6.43
2023-01-17T15:04:06.772Z,5.65
2023-01-17T15:06:39.383Z,6.80
2023-01-17T15:09:19.163Z,5.50
2023-01-17T15:11:48.148Z,8.13
2023-01-17T15:14:23.141Z,5.75
2023-01-17T15:16:53.587Z,5.25
2023-01-17T15:19:22.428Z,5.03
2023-01-17T15:21:51.996Z,6.27
2023-01-17T15:24:26.709Z,5.75
2023-01-17T15:26:54.680Z,5.45
2023-01-17T15:29:28.058Z,4.87
2023-01-17T15:32:00.220Z,4.72
2023-01-17T15:34:30.252Z,4.73
2023-01-17T15:37:04.080Z,4.60
2023-01-17T15:39:35.107Z,5.60
2023-01-17T15:42:08.347Z,5.62
2023-01-17T15:44:48.096Z,4.90
2023-01-17T15:47:31.604Z,5.00
2023-01-17T15:50:02.212Z,8.80
2023-01-17T15:52:30.244Z,5.90
2023-01-17T15:55:23.955Z,5.45
2023-01-17T15:57:52.272Z,5.60
2023-01-17T16:00:26.414Z,6.77
2023-01-17T16:02:59.031Z,5.37
2023-01-17T16:05:27.844Z,9.02
2023-01-17T16:07:57.560Z,6.22
2023-01-17T16:10:31.738Z,5.05
2023-01-17T16:12:59.790Z,6.47
2023-01-17T16:15:28.039Z,5.30
2023-01-17T16:18:02.467Z,9.07
2023-01-17T16:20:35.526Z,4.62
2023-01-17T16:23:03.193Z,5.55
2023-01-17T16:25:32.965Z,5.13
2023-01-17T16:28:07.385Z,5.37
2023-01-17T16:30:35.982Z,5.12
2023-01-17T16:33:04.041Z,5.07
2023-01-17T16:35:33.862Z,5.93
2023-01-17T16:38:04.700Z,5.97
2023-01-17T16:40:34.336Z,5.45
2023-01-17T16:43:02.228Z,5.28
2023-01-17T16:45:30.053Z,6.97
2023-01-17T16:47:57.700Z,5.25
2023-01-17T16:50:25.848Z,6.53
2023-01-17T16:52:54.530Z,7.50
2023-01-17T16:55:24.292Z,4.85
2023-01-17T16:57:54.188Z,6.10
2023-01-17T17:00:22.764Z,4.62
2023-01-17T17:02:51.236Z,7.10
2023-01-17T17:05:19.723Z,6.55
2023-01-17T17:07:50.745Z,6.18
2023-01-17T17:10:21.945Z,6.47
2023-01-17T17:12:49.605Z,5.00
2023-01-17T17:15:17.321Z,7.30
2023-01-17T17:17:45.248Z,6.18
2023-01-17T17:20:15.335Z,6.32
2023-01-17T17:22:44.445Z,8.57
2023-01-17T17:25:12.412Z,7.80
2023-01-17T17:27:39.915Z,6.47
2023-01-17T17:30:08.920Z,5.35
2023-01-17T17:32:36.891Z,5.70
2023-01-17T17:35:05.325Z,5.78
2023-01-17T17:37:32.843Z,8.02
2023-01-17T17:40:01.219Z,6.87
2023-01-17T17:42:29.445Z,6.15
2023-01-17T17:44:57.269Z,6.25
2023-01-17T17:47:25.637Z,6.03
2023-01-17T17:49:53.292Z,5.72
2023-01-17T17:52:22.157Z,6.10
2023-01-17T17:54:50.147Z,5.85
2023-01-17T17:57:17.768Z,7.60
2023-01-17T17:59:45.454Z,4.87
2023-01-17T18:02:13.774Z,6.35
2023-01-17T18:04:41.694Z,6.23
2023-01-17T18:07:09.285Z,5.93
2023-01-17T18:09:37.104Z,5.70
2023-01-17T18:12:05.864Z,7.65
2023-01-17T18:14:34.030Z,6.80
2023-01-17T18:17:01.966Z,7.23
2023-01-17T18:19:30.293Z,6.70
2023-01-17T18:21:58.209Z,6.47
2023-01-17T18:24:27.243Z,8.32
2023-01-17T18:26:57.574Z,6.12
2023-01-17T18:29:26.993Z,5.90
2023-01-17T18:31:55.986Z,6.03
2023-01-17T18:34:27.085Z,6.22
2023-01-17T18:36:55.708Z,5.78
2023-01-17T18:39:29.276Z,5.12
2023-01-17T18:41:58.322Z,3.73
2023-01-17T18:44:27.416Z,5.22
2023-01-17T18:46:55.611Z,4.95
2023-01-17T18:49:23.587Z,5.37
2023-01-17T18:51:51.855Z,4.65
2023-01-17T18:54:20.390Z,4.13
2023-01-17T18:56:48.545Z,5.55
2023-01-17T18:59:18.504Z,4.80
2023-01-17T19:01:48.214Z,3.90
2023-01-17T19:04:17.408Z,4.47
2023-01-17T19:06:47.438Z,4.67
2023-01-17T19:09:17.202Z,3.78
2023-01-17T19:11:47.479Z,5.45
2023-01-17T19:14:15.837Z,5.40
2023-01-17T19:16:44.021Z,6.35
2023-01-17T19:19:14.091Z,5.40
2023-01-17T19:21:42.529Z,7.25
2023-01-17T19:24:13.171Z,4.37
2023-01-17T19:26:42.065Z,4.43
2023-01-17T19:29:10.345Z,17.35
2023-01-17T19:31:42.485Z,4.97
2023-01-17T19:34:12.717Z,4.75
2023-01-17T19:36:40.923Z,3.45
2023-01-17T19:39:12.237Z,3.00
2023-01-17T19:41:43.074Z,3.35
2023-01-17T19:44:12.467Z,3.07
2023-01-17T19:46:40.598Z,3.12
2023-01-17T19:49:10.396Z,3.03
2023-01-17T19:51:39.819Z,2.55
2023-01-17T19:54:08.530Z,1.77
2023-01-17T19:56:36.836Z,2.80
2023-01-17T19:59:06.074Z,1.80
2023-01-17T20:01:35.405Z,2.25
2023-01-17T20:04:04.538Z,2.05
2023-01-17T20:06:35.336Z,5.57
2023-01-17T20:09:04.933Z,1.53
2023-01-17T20:11:32.730Z,2.58
2023-01-17T20:14:00.953Z,2.45
2023-01-17T20:16:30.661Z,2.08
2023-01-17T20:18:59.399Z,1.62
2023-01-17T20:21:28.186Z,2.53
2023-01-17T20:23:58.429Z,3.30
2023-01-17T20:26:34.772Z,1.42
2023-01-17T20:29:10.265Z,1.20
2023-01-17T20:31:40.138Z,2.10
2023-01-17T20:34:10.724Z,1.60
2023-01-17T20:36:39.366Z,1.40
2023-01-17T20:39:08.691Z,1.60
2023-01-17T20:41:39.182Z,2.42
2023-01-17T20:44:10.926Z,0.88
2023-01-17T20:46:41.300Z,1.20
2023-01-17T20:49:18.811Z,1.20
2023-01-17T20:51:47.314Z,0.80
2023-01-17T20:54:17.891Z,1.37
2023-01-17T20:56:47.505Z,1.35
2023-01-17T20:59:17.886Z,1.80
2023-01-17T21:01:46.174Z,1.42
2023-01-17T21:04:14.979Z,1.23
2023-01-17T21:06:46.432Z,1.60
2023-01-17T21:09:15.341Z,1.10
2023-01-17T21:11:43.418Z,2.00
2023-01-17T21:14:11.134Z,1.65
2023-01-17T21:16:39.172Z,2.45
2023-01-17T21:19:11.876Z,1.73
2023-01-17T21:21:39.557Z,1.40
2023-01-17T21:24:07.520Z,1.80
2023-01-17T21:26:35.136Z,1.65
2023-01-17T21:29:03.644Z,1.60
2023-01-17T21:31:34.731Z,1.42
2023-01-17T21:34:04.880Z,2.40
2023-01-17T21:36:35.520Z,1.23
2023-01-17T21:39:06.064Z,1.85
2023-01-17T21:41:36.167Z,1.15
2023-01-17T21:44:08.063Z,1.77
2023-01-17T21:46:38.534Z,2.33
2023-01-17T21:49:07.431Z,2.00
2023-01-17T21:51:53.420Z,2.50
2023-01-17T21:54:43.131Z,1.58
2023-01-17T21:57:30.851Z,2.45
2023-01-17T22:00:02.279Z,1.58
2023-01-17T22:02:39.996Z,1.40
2023-01-17T22:05:09.531Z,2.58
2023-01-17T22:07:39.014Z,2.22
2023-01-17T22:10:07.104Z,2.28
2023-01-17T22:12:38.155Z,1.60
2023-01-17T22:15:06.331Z,1.93
2023-01-17T22:17:34.043Z,2.15
2023-01-17T22:20:02.144Z,1.73
2023-01-17T22:22:32.597Z,2.62
2023-01-17T22:25:00.163Z,2.78
2023-01-17T22:27:28.792Z,3.50
2023-01-17T22:29:56.420Z,5.35
2023-01-17T22:32:24.109Z,3.62
2023-01-17T22:34:51.936Z,3.45
2023-01-17T22:37:19.451Z,4.30
2023-01-17T22:39:47.047Z,4.53
2023-01-17T22:42:16.618Z,5.10
2023-01-17T22:44:47.842Z,5.45
2023-01-17T22:47:15.761Z,5.82
2023-01-17T22:49:43.280Z,5.15
2023-01-17T22:52:10.821Z,3.77
2023-01-17T22:54:38.737Z,5.30
2023-01-17T22:57:06.348Z,4.78
2023-01-17T22:59:34.073Z,4.50
2023-01-17T23:02:01.979Z,4.60
2023-01-17T23:04:29.562Z,6.77
2023-01-17T23:06:57.564Z,5.25
2023-01-17T23:09:25.743Z,4.93
2023-01-17T23:11:55.157Z,4.72
2023-01-17T23:14:27.062Z,4.75
2023-01-17T23:17:27.182Z,4.83
2023-01-17T23:19:54.804Z,6.00
2023-01-17T23:22:27.623Z,5.45
2023-01-17T23:24:59.628Z,9.50
2023-01-17T23:27:46.588Z,6.78
2023-01-17T23:30:37.862Z,6.13
2023-01-17T23:33:07.810Z,6.32
2023-01-17T23:35:42.247Z,16.75
2023-01-17T23:38:29.625Z,12.15
2023-01-17T23:41:24.692Z,8.55
2023-01-17T23:43:57.191Z,7.30
2023-01-17T23:46:26.557Z,10.60
2023-01-17T23:48:55.163Z,6.57
2023-01-17T23:51:22.855Z,6.22
2023-01-17T23:53:53.417Z,7.22
2023-01-17T23:56:26.580Z,6.73
2023-01-17T23:58:54.124Z,9.48
